Nukus, Uzbekistan
Current Conditions -  °F | °C
As of 7:00 PM on Saturday 20 Dec 2014 (Local Time) from UTNN Reporting Station
Clear Clear  
Wind Chill: 25°   Ceiling: Unl
Heat Index: 32°   Visibility: 5mi
Dew Point: 27°   Wind: 8mph
Humidity: 80%   Direction: 350°N
Pressure: 30.15"   Gusts: NA
Location:  42.47°N, 59.61°E
Report Text: UTNN 201400Z 35007KT 8000 NSC 00/M03 Q1021 R33/CLRD60 NOSIG
Loading
Personal Weather Stations






























Interactive Weather Map New forecast layout! Learn more

10-Day Weather Forecast

Advertisements
Track Severe Weather on mobile